Aérodrome :
LOGIN :

S'inscrire | Disclaimer

   EN    FR    IT 

 










Légende :    VFR   VFR Marginal   IFR   IFR Intensif   IFR Très Intensif
Visi : 
Plafond : 
>= 8 km
>= 3000ft
5 à 8 km
1000 à 3000 ft
1500m à 5 km
500 à 1000 ft
800 à 1500m
200 à 500 ft
< 800m
< 200 ft
Symboles :   Orages  Brouillard  Fortes neiges  Fortes précipitations  Vent > 20 kt
SIGMETs :   Divers  Orages  Givrage  Turbulence  Onde Orograph.  Cendres Volcan.







- Altitude de l'aérodrome : 144 ft
- Code IATA : PGF
- Voir les cartes d'approche


LFMP - Perpignan

DERNIER METAR :
  • 181530Z AUTO 05010KT 9999 NCD 26/16 Q1011 NOSIG

METARs EXPIRÉS :
  • 181500Z AUTO 05011KT 9999 NCD 26/17 Q1011 NOSIG
  • 181430Z AUTO 05010KT 9999 NCD 26/17 Q1011 NOSIG
  • 181400Z AUTO 06010KT 9999 NCD 25/17 Q1012 NOSIG
  • 181330Z AUTO 06009KT 010V110 9999 FEW010 26/18 Q1012 NOSIG
  • 181300Z AUTO 07009KT 030V130 9999 NCD 26/18 Q1012 NOSIG

TAF TAF LFMP
Valide du 18 à 15h jusqu'au 19 à 15h UTC


181400Z 1815/1915 04010KT CAVOK
BECMG 1820/1822 VRB04KT
BECMG 1911/1913 12010KT
ATIS : +33 4 68 63 75 12
Pas de NOTAMs connus pour ce terrain.



MET'MAP, la Météo Aéronautique d'un coup d'oeil ! - Copyright ORBIFLY Décembre 2007 - Disclaimer

ORBIFLY MET'MAP TEAM :

Programmation & Développement : Alexandra Zaïnal
Conception & Développement : Baudouin d'Aumeries
Co-Programmation & Développement : Marc-Olivier Méhu
Soutien technique & logistique : Manuel Goepfert

Contact : metmap@orbifly.com




SOURCES & CREDITS :

   NOAA